createdAt,value
2023-09-01T00:00:13.847Z,100533.94
2023-09-01T00:02:42.011Z,100537.66
2023-09-01T00:05:12.218Z,100538.06
2023-09-01T00:07:40.340Z,100535.38
2023-09-01T00:10:09.022Z,100539.72
2023-09-01T00:12:37.030Z,100539.72
2023-09-01T00:15:05.902Z,100541.00
2023-09-01T00:17:33.927Z,100541.03
2023-09-01T00:20:01.987Z,100547.75
2023-09-01T00:22:31.595Z,100537.25
2023-09-01T00:24:59.538Z,100544.78
2023-09-01T00:27:27.679Z,100549.28
2023-09-01T00:29:55.747Z,100555.59
2023-09-01T00:32:23.718Z,100550.91
2023-09-01T00:34:58.091Z,100550.81
2023-09-01T00:37:26.609Z,100550.44
2023-09-01T00:39:55.926Z,100557.84
2023-09-01T00:42:23.881Z,100555.97
2023-09-01T00:44:51.842Z,100554.47
2023-09-01T00:47:20.332Z,100555.72
2023-09-01T00:49:48.411Z,100552.84
2023-09-01T00:52:16.573Z,100548.75
2023-09-01T00:54:44.896Z,100549.41
2023-09-01T00:57:14.197Z,100546.59
2023-09-01T00:59:42.973Z,100546.41
2023-09-01T01:02:10.987Z,100543.44
2023-09-01T01:04:39.085Z,100550.78
2023-09-01T01:07:14.477Z,100552.63
2023-09-01T01:09:54.919Z,100553.47
2023-09-01T01:12:31.280Z,100554.66
2023-09-01T01:15:00.698Z,100557.22
2023-09-01T01:17:30.430Z,100554.97
2023-09-01T01:20:14.957Z,100554.41
2023-09-01T01:22:48.509Z,100554.31
2023-09-01T01:25:17.876Z,100558.72
2023-09-01T01:27:46.010Z,100559.56
2023-09-01T01:30:16.298Z,100561.53
2023-09-01T01:32:45.088Z,100557.56
2023-09-01T01:35:22.533Z,100557.16
2023-09-01T01:37:58.192Z,100565.50
2023-09-01T01:40:32.121Z,100559.47
2023-09-01T01:43:04.060Z,100551.34
2023-09-01T01:45:34.018Z,100556.13
2023-09-01T01:48:02.301Z,100556.44
2023-09-01T01:50:30.312Z,100554.22
2023-09-01T01:52:58.436Z,100559.25
2023-09-01T01:55:27.862Z,100558.06
2023-09-01T01:57:55.874Z,100566.84
2023-09-01T02:00:25.089Z,100558.97
2023-09-01T02:02:53.677Z,100574.41
2023-09-01T02:05:21.951Z,100574.13
2023-09-01T02:07:49.983Z,100578.72
2023-09-01T02:10:18.754Z,100579.84
2023-09-01T02:12:48.784Z,100577.16
2023-09-01T02:15:16.840Z,100586.03
2023-09-01T02:17:45.836Z,100593.13
2023-09-01T02:20:18.528Z,100588.75
2023-09-01T02:22:47.338Z,100583.50
2023-09-01T02:25:15.581Z,100585.19
2023-09-01T02:27:44.351Z,100580.88
2023-09-01T02:30:14.883Z,100582.22
2023-09-01T02:32:43.130Z,100587.50
2023-09-01T02:35:11.162Z,100573.53
2023-09-01T02:37:39.301Z,100582.41
2023-09-01T02:40:12.315Z,100580.22
2023-09-01T02:42:41.326Z,100577.59
2023-09-01T02:45:12.340Z,100585.63
2023-09-01T02:47:44.509Z,100585.25
2023-09-01T02:50:12.700Z,100583.38
2023-09-01T02:52:40.797Z,100591.13
2023-09-01T02:55:09.639Z,100590.94
2023-09-01T02:57:38.012Z,100586.28
2023-09-01T03:00:16.239Z,100601.13
2023-09-01T03:02:46.615Z,100581.53
2023-09-01T03:05:14.941Z,100589.81
2023-09-01T03:07:43.606Z,100577.97
2023-09-01T03:10:11.864Z,100584.78
2023-09-01T03:12:40.738Z,100582.66
2023-09-01T03:15:10.321Z,100587.22
2023-09-01T03:17:38.557Z,100591.19
2023-09-01T03:20:11.847Z,100590.97
2023-09-01T03:22:39.963Z,100594.34
2023-09-01T03:25:11.309Z,100592.63
2023-09-01T03:27:39.725Z,100587.13
2023-09-01T03:30:08.682Z,100594.53
2023-09-01T03:32:36.791Z,100590.78
2023-09-01T03:35:05.171Z,100593.19
2023-09-01T03:37:34.868Z,100598.50
2023-09-01T03:40:02.828Z,100595.22
2023-09-01T03:42:33.128Z,100604.94
2023-09-01T03:45:01.160Z,100599.31
2023-09-01T03:47:29.116Z,100604.38
2023-09-01T03:49:57.138Z,100599.22
2023-09-01T03:52:25.135Z,100605.22
2023-09-01T03:54:54.559Z,100607.72
2023-09-01T03:57:22.535Z,100605.97
2023-09-01T03:59:51.477Z,100606.69
2023-09-01T04:02:19.422Z,100607.44
2023-09-01T04:04:47.382Z,100606.97
2023-09-01T04:07:15.360Z,100607.06
2023-09-01T04:09:43.342Z,100605.50
2023-09-01T04:12:12.868Z,100606.03
2023-09-01T04:14:40.822Z,100601.66
2023-09-01T04:17:08.810Z,100605.38
2023-09-01T04:19:36.769Z,100607.91
2023-09-01T04:22:04.781Z,100609.88
2023-09-01T04:24:32.819Z,100604.88
2023-09-01T04:27:00.836Z,100612.50
2023-09-01T04:29:30.421Z,100616.41
2023-09-01T04:31:58.466Z,100614.69
2023-09-01T04:34:26.453Z,100615.34
2023-09-01T04:36:54.437Z,100614.50
2023-09-01T04:39:22.421Z,100612.66
2023-09-01T04:41:50.441Z,100618.88
2023-09-01T04:44:18.404Z,100619.75
2023-09-01T04:46:47.766Z,100615.25
2023-09-01T04:49:15.731Z,100615.72
2023-09-01T04:51:43.687Z,100617.31
2023-09-01T04:54:11.764Z,100615.81
2023-09-01T04:56:40.856Z,100616.66
2023-09-01T04:59:08.849Z,100620.38
2023-09-01T05:01:37.093Z,100605.44
2023-09-01T05:04:11.205Z,100613.66
2023-09-01T05:06:39.343Z,100619.00
2023-09-01T05:09:07.772Z,100623.84
2023-09-01T05:11:35.789Z,100628.63
2023-09-01T05:14:03.941Z,100630.78
2023-09-01T05:16:32.010Z,100633.78
2023-09-01T05:19:00.082Z,100635.72
2023-09-01T05:21:29.472Z,100626.47
2023-09-01T05:23:57.459Z,100635.06
2023-09-01T05:26:25.498Z,100633.56
2023-09-01T05:28:53.437Z,100636.28
2023-09-01T05:31:21.474Z,100631.03
2023-09-01T05:33:49.492Z,100633.38
2023-09-01T05:36:17.459Z,100633.19
2023-09-01T05:38:46.832Z,100636.09
2023-09-01T05:41:15.424Z,100635.25
2023-09-01T05:43:43.387Z,100643.19
2023-09-01T05:46:11.444Z,100638.63
2023-09-01T05:48:39.504Z,100631.59
2023-09-01T05:51:07.468Z,100635.53
2023-09-01T05:53:35.597Z,100638.16
2023-09-01T05:56:05.231Z,100650.00
2023-09-01T05:58:34.833Z,100651.44
2023-09-01T06:01:02.752Z,100657.97
2023-09-01T06:03:30.966Z,100658.44
2023-09-01T06:05:58.970Z,100647.28
2023-09-01T06:08:26.998Z,100659.25
2023-09-01T06:11:04.891Z,100663.69
2023-09-01T06:13:33.430Z,100657.59
2023-09-01T06:16:01.421Z,100657.13
2023-09-01T06:18:29.484Z,100650.84
2023-09-01T06:20:57.547Z,100657.13
2023-09-01T06:23:25.499Z,100651.59
2023-09-01T06:25:53.479Z,100650.59
2023-09-01T06:28:22.946Z,100645.22
2023-09-01T06:30:51.136Z,100641.94
2023-09-01T06:33:19.649Z,100641.03
2023-09-01T06:35:47.746Z,100640.00
2023-09-01T06:38:16.170Z,100639.22
2023-09-01T06:40:45.585Z,100636.63
2023-09-01T06:43:13.588Z,100646.19
2023-09-01T06:45:43.012Z,100649.25
2023-09-01T06:48:11.082Z,100653.84
2023-09-01T06:50:39.791Z,100661.31
2023-09-01T06:53:08.015Z,100664.50
2023-09-01T06:55:36.152Z,100662.31
2023-09-01T06:58:04.462Z,100670.53
2023-09-01T07:00:32.478Z,100676.75
2023-09-01T07:03:01.967Z,100686.47
2023-09-01T07:05:29.978Z,100680.00
2023-09-01T07:07:57.964Z,100686.91
2023-09-01T07:10:26.052Z,100679.44
2023-09-01T07:12:54.086Z,100684.16
2023-09-01T07:15:22.223Z,100684.16
2023-09-01T07:17:50.281Z,100680.53
2023-09-01T07:20:19.737Z,100679.44
2023-09-01T07:22:47.737Z,100685.25
2023-09-01T07:25:17.112Z,100689.47
2023-09-01T07:27:45.227Z,100690.94
2023-09-01T07:30:15.046Z,100690.38
2023-09-01T07:32:43.194Z,100688.31
2023-09-01T07:35:11.147Z,100703.16
2023-09-01T07:37:40.533Z,100700.59
2023-09-01T07:40:09.515Z,100696.47
2023-09-01T07:42:37.804Z,100701.50
2023-09-01T07:45:07.127Z,100695.22
2023-09-01T07:47:35.461Z,100700.94
2023-09-01T07:50:03.661Z,100696.38
2023-09-01T07:52:31.744Z,100697.88
2023-09-01T07:55:01.035Z,100687.63
2023-09-01T07:57:29.061Z,100689.78
2023-09-01T07:59:57.013Z,100688.81
2023-09-01T08:02:25.000Z,100690.91
2023-09-01T08:04:52.938Z,100693.88
2023-09-01T08:07:21.405Z,100694.53
2023-09-01T08:09:49.431Z,100694.38
2023-09-01T08:12:18.783Z,100697.28
2023-09-01T08:14:46.776Z,100697.09
2023-09-01T08:17:14.811Z,100700.25
2023-09-01T08:19:42.874Z,100696.31
2023-09-01T08:22:10.880Z,100696.34
2023-09-01T08:24:38.842Z,100703.09
2023-09-01T08:27:07.078Z,100703.53
2023-09-01T08:29:36.555Z,100709.66
2023-09-01T08:32:04.757Z,100707.06
2023-09-01T08:34:32.721Z,100701.44
2023-09-01T08:37:00.876Z,100695.56
2023-09-01T08:39:28.940Z,100702.72
2023-09-01T08:41:57.258Z,100691.22
2023-09-01T08:44:29.044Z,100689.16
2023-09-01T08:47:00.255Z,100690.00
2023-09-01T08:49:29.434Z,100690.44
2023-09-01T08:51:58.406Z,100693.16
2023-09-01T08:54:28.047Z,100698.75
2023-09-01T08:56:55.994Z,100696.69
2023-09-01T08:59:25.469Z,100702.56
2023-09-01T09:01:53.538Z,100703.41
2023-09-01T09:04:22.918Z,100695.69
2023-09-01T09:06:50.965Z,100692.97
2023-09-01T09:09:20.322Z,100694.41
2023-09-01T09:11:58.170Z,100691.69
2023-09-01T09:14:28.421Z,100683.59
2023-09-01T09:16:58.252Z,100686.91
2023-09-01T09:19:28.727Z,100689.47
2023-09-01T09:22:07.327Z,100689.47
2023-09-01T09:24:37.455Z,100680.69
2023-09-01T09:27:07.809Z,100686.56
2023-09-01T09:29:41.608Z,100681.97
2023-09-01T09:32:25.018Z,100685.50
2023-09-01T09:35:08.498Z,100683.84
2023-09-01T09:37:37.016Z,100689.50
2023-09-01T09:40:16.706Z,100678.63
2023-09-01T09:42:45.884Z,100684.50
2023-09-01T09:45:27.954Z,100678.25
2023-09-01T09:47:57.943Z,100675.53
2023-09-01T09:50:28.310Z,100679.91
2023-09-01T09:53:00.376Z,100677.84
2023-09-01T09:55:29.707Z,100675.34
2023-09-01T09:58:07.463Z,100673.47
2023-09-01T10:00:40.642Z,100669.69
2023-09-01T10:03:09.926Z,100674.31
2023-09-01T10:05:42.586Z,100672.25
2023-09-01T10:08:12.261Z,100666.38
2023-09-01T10:10:40.695Z,100671.00
2023-09-01T10:13:09.664Z,100668.28
2023-09-01T10:15:38.788Z,100667.47
2023-09-01T10:18:09.465Z,100666.22
2023-09-01T10:20:41.892Z,100666.63
2023-09-01T10:23:11.039Z,100665.19
2023-09-01T10:25:39.295Z,100664.56
2023-09-01T10:28:10.229Z,100667.31
2023-09-01T10:30:39.554Z,100669.59
2023-09-01T10:33:12.274Z,100665.41
2023-09-01T10:35:43.771Z,100661.66
2023-09-01T10:38:18.603Z,100659.78
2023-09-01T10:40:50.122Z,100663.75
2023-09-01T10:43:56.792Z,100658.72
2023-09-01T10:46:30.950Z,100654.31
2023-09-01T10:49:00.195Z,100660.19
2023-09-01T10:51:31.670Z,100651.81
2023-09-01T10:54:02.316Z,100648.06
2023-09-01T10:56:31.860Z,100652.22
2023-09-01T10:59:03.646Z,100649.28
2023-09-01T11:01:34.199Z,100640.50
2023-09-01T11:04:33.376Z,100636.94
2023-09-01T11:07:09.476Z,100638.63
2023-09-01T11:09:51.586Z,100636.09
2023-09-01T11:12:19.944Z,100637.78
2023-09-01T11:14:58.785Z,100633.78
2023-09-01T11:17:51.292Z,100640.91
2023-09-01T11:20:22.350Z,100630.84
2023-09-01T11:22:53.222Z,100627.09
2023-09-01T11:25:21.244Z,100633.81
2023-09-01T11:27:51.899Z,100632.34
2023-09-01T11:30:21.598Z,100631.50
2023-09-01T11:32:51.302Z,100630.06
2023-09-01T11:35:26.466Z,100628.34
2023-09-01T11:37:56.509Z,100627.75
2023-09-01T11:40:26.770Z,100635.06
2023-09-01T11:42:55.092Z,100634.25
2023-09-01T11:45:23.377Z,100637.38
2023-09-01T11:47:55.233Z,100631.72
2023-09-01T11:50:23.769Z,100632.34
2023-09-01T11:52:53.672Z,100623.72
2023-09-01T11:55:38.234Z,100623.94
2023-09-01T11:58:06.893Z,100621.22
2023-09-01T12:00:37.090Z,100616.56
2023-09-01T12:03:06.516Z,100615.09
2023-09-01T12:05:36.473Z,100609.88
2023-09-01T12:08:05.813Z,100604.41
2023-09-01T12:10:37.104Z,100615.09
2023-09-01T12:13:08.492Z,100611.31
2023-09-01T12:15:58.759Z,100613.84
2023-09-01T12:18:31.737Z,100603.56
2023-09-01T12:20:59.979Z,100608.16
2023-09-01T12:23:32.454Z,100601.84
2023-09-01T12:26:02.543Z,100609.19
2023-09-01T12:28:32.203Z,100604.16
2023-09-01T12:31:03.637Z,100597.03
2023-09-01T12:33:31.865Z,100605.81
2023-09-01T12:36:01.272Z,100594.31
2023-09-01T12:38:29.442Z,100598.91
2023-09-01T12:40:57.992Z,100602.66
2023-09-01T12:43:27.431Z,100598.94
2023-09-01T12:45:55.716Z,100601.84
2023-09-01T12:48:24.171Z,100601.00
2023-09-01T12:50:52.635Z,100602.06
2023-09-01T12:53:21.150Z,100594.72
2023-09-01T12:55:50.092Z,100594.31
2023-09-01T12:58:18.181Z,100588.44
2023-09-01T13:00:47.774Z,100595.56
2023-09-01T13:03:16.071Z,100587.59
2023-09-01T13:05:46.599Z,100586.31
2023-09-01T13:08:16.680Z,100581.47
2023-09-01T13:10:45.701Z,100590.28
2023-09-01T13:13:15.830Z,100588.63
2023-09-01T13:15:44.588Z,100590.06
2023-09-01T13:18:15.964Z,100588.81
2023-09-01T13:20:45.404Z,100587.97
2023-09-01T13:23:14.966Z,100592.56
2023-09-01T13:25:44.945Z,100583.34
2023-09-01T13:28:13.580Z,100583.13
2023-09-01T13:30:44.250Z,100577.06
2023-09-01T13:33:15.536Z,100573.88
2023-09-01T13:35:45.216Z,100575.59
2023-09-01T13:38:13.319Z,100569.09
2023-09-01T13:40:42.784Z,100574.13
2023-09-01T13:43:12.093Z,100559.47
2023-09-01T13:45:41.348Z,100567.44
2023-09-01T13:48:10.063Z,100561.34
2023-09-01T13:50:40.631Z,100563.66
2023-09-01T13:53:09.233Z,100558.84
2023-09-01T13:55:37.774Z,100564.88
2023-09-01T13:58:05.782Z,100555.66
2023-09-01T14:00:35.019Z,100564.47
2023-09-01T14:03:04.451Z,100561.97
2023-09-01T14:05:32.989Z,100559.44
2023-09-01T14:08:03.245Z,100558.84
2023-09-01T14:10:33.111Z,100563.44
2023-09-01T14:13:02.543Z,100560.50
2023-09-01T14:15:32.289Z,100568.06
2023-09-01T14:18:01.777Z,100563.66
2023-09-01T14:20:30.305Z,100562.84
2023-09-01T14:22:59.581Z,100562.84
2023-09-01T14:25:29.034Z,100556.50
2023-09-01T14:27:58.781Z,100562.81
2023-09-01T14:30:30.106Z,100559.03
2023-09-01T14:33:14.218Z,100556.91
2023-09-01T14:35:51.763Z,100560.28
2023-09-01T14:38:21.972Z,100561.34
2023-09-01T14:40:52.745Z,100559.44
2023-09-01T14:43:21.351Z,100559.44
2023-09-01T14:45:51.236Z,100554.41
2023-09-01T14:48:22.197Z,100553.38
2023-09-01T14:50:50.712Z,100562.59
2023-09-01T14:53:18.796Z,100547.69
2023-09-01T14:55:47.596Z,100544.16
2023-09-01T14:58:17.480Z,100546.03
2023-09-01T15:00:45.638Z,100548.38
2023-09-01T15:03:15.171Z,100540.59
2023-09-01T15:05:43.585Z,100537.47
2023-09-01T15:08:11.562Z,100539.56
2023-09-01T15:10:40.842Z,100535.78
2023-09-01T15:13:21.114Z,100541.25
2023-09-01T15:15:51.156Z,100540.41
2023-09-01T15:18:20.942Z,100535.53
2023-09-01T15:20:49.466Z,100538.25
2023-09-01T15:23:18.581Z,100536.38
2023-09-01T15:25:48.523Z,100531.38
2023-09-01T15:28:18.160Z,100535.16
2023-09-01T15:30:49.149Z,100538.53
2023-09-01T15:33:17.939Z,100536.81
2023-09-01T15:35:56.115Z,100537.22
2023-09-01T15:38:25.396Z,100530.94
2023-09-01T15:40:54.302Z,100537.47
2023-09-01T15:43:23.414Z,100532.84
2023-09-01T15:45:55.640Z,100530.53
2023-09-01T15:48:25.472Z,100541.44
2023-09-01T15:50:57.419Z,100527.00
2023-09-01T15:53:26.539Z,100527.81
2023-09-01T15:55:56.298Z,100524.66
2023-09-01T15:58:25.319Z,100532.03
2023-09-01T16:01:06.710Z,100521.34
2023-09-01T16:03:53.487Z,100525.72
2023-09-01T16:06:23.880Z,100523.44
2023-09-01T16:08:53.579Z,100520.72
2023-09-01T16:11:23.246Z,100522.38
2023-09-01T16:13:59.783Z,100519.03
2023-09-01T16:16:31.923Z,100522.81
2023-09-01T16:19:00.442Z,100526.56
2023-09-01T16:21:29.060Z,100524.28
2023-09-01T16:23:57.988Z,100525.75
2023-09-01T16:26:26.493Z,100527.47
2023-09-01T16:28:55.328Z,100524.94
2023-09-01T16:31:25.339Z,100523.47
2023-09-01T16:33:59.722Z,100522.63
2023-09-01T16:36:29.645Z,100531.44
2023-09-01T16:38:58.890Z,100519.72
2023-09-01T16:41:26.917Z,100524.53
2023-09-01T16:43:55.995Z,100522.84
2023-09-01T16:46:25.256Z,100520.13
2023-09-01T16:48:55.928Z,100519.72
2023-09-01T16:51:24.945Z,100525.16
2023-09-01T16:53:54.880Z,100514.47
2023-09-01T16:56:24.560Z,100526.00
2023-09-01T16:58:54.201Z,100526.22
2023-09-01T17:01:23.107Z,100530.00
2023-09-01T17:03:52.389Z,100532.72
2023-09-01T17:06:23.134Z,100535.44
2023-09-01T17:08:57.124Z,100525.16
2023-09-01T17:11:25.325Z,100535.03
2023-09-01T17:13:55.116Z,100538.38
2023-09-01T17:16:25.036Z,100534.59
2023-09-01T17:18:54.004Z,100543.63
2023-09-01T17:21:24.878Z,100545.28
2023-09-01T17:23:54.695Z,100545.28
2023-09-01T17:26:23.820Z,100541.72
2023-09-01T17:28:52.692Z,100534.59
2023-09-01T17:31:21.961Z,100544.44
2023-09-01T17:33:50.552Z,100552.63
2023-09-01T17:36:19.235Z,100548.88
2023-09-01T17:38:49.186Z,100555.16
2023-09-01T17:41:37.335Z,100559.97
2023-09-01T17:44:08.174Z,100566.25
2023-09-01T17:46:39.554Z,100563.75
2023-09-01T17:49:09.409Z,100558.91
2023-09-01T17:51:38.814Z,100567.94
2023-09-01T17:54:08.556Z,100564.38
2023-09-01T17:56:37.412Z,100572.56
2023-09-01T17:59:06.025Z,100572.56
2023-09-01T18:01:34.658Z,100571.72
2023-09-01T18:04:02.788Z,100580.94
2023-09-01T18:06:31.977Z,100574.66
2023-09-01T18:09:01.327Z,100575.72
2023-09-01T18:11:33.864Z,100582.19
2023-09-01T18:14:06.074Z,100583.25
2023-09-01T18:16:36.510Z,100589.56
2023-09-01T18:19:06.327Z,100588.94
2023-09-01T18:21:41.001Z,100591.22
2023-09-01T18:24:16.094Z,100591.03
2023-09-01T18:26:47.594Z,100603.00
2023-09-01T18:29:24.394Z,100597.72
2023-09-01T18:31:56.244Z,100596.06
2023-09-01T18:34:25.702Z,100607.38
2023-09-01T18:36:55.910Z,100603.41
2023-09-01T18:39:27.350Z,100607.78
2023-09-01T18:41:58.050Z,100603.38
2023-09-01T18:44:28.339Z,100609.06
2023-09-01T18:46:56.872Z,100604.44
2023-09-01T18:49:26.983Z,100611.56
2023-09-01T18:51:56.083Z,100605.06
2023-09-01T18:54:28.726Z,100611.78
2023-09-01T18:57:04.573Z,100606.31
2023-09-01T18:59:36.370Z,100605.69
2023-09-01T19:02:10.349Z,100611.56
2023-09-01T19:04:43.803Z,100609.69
2023-09-01T19:07:13.871Z,100613.44
2023-09-01T19:09:46.597Z,100615.34
2023-09-01T19:12:19.627Z,100617.00
2023-09-01T19:14:52.994Z,100615.34
2023-09-01T19:17:21.979Z,100614.69
2023-09-01T19:19:51.989Z,100616.41
2023-09-01T19:22:23.281Z,100618.69
2023-09-01T19:24:55.832Z,100620.38
2023-09-01T19:27:27.108Z,100615.16
2023-09-01T19:29:58.509Z,100623.31
2023-09-01T19:32:28.391Z,100616.19
2023-09-01T19:35:02.402Z,100618.28
2023-09-01T19:37:32.497Z,100624.97
2023-09-01T19:40:06.201Z,100620.78
2023-09-01T19:42:38.543Z,100628.13
2023-09-01T19:45:18.516Z,100623.94
2023-09-01T19:47:49.701Z,100624.78
2023-09-01T19:50:19.579Z,100624.56
2023-09-01T19:52:50.864Z,100625.81
2023-09-01T19:55:23.008Z,100632.09
2023-09-01T19:57:53.964Z,100626.84
2023-09-01T20:00:28.666Z,100628.50
2023-09-01T20:02:59.443Z,100631.06
2023-09-01T20:05:31.228Z,100627.47
2023-09-01T20:08:01.241Z,100630.59
2023-09-01T20:10:33.957Z,100634.38
2023-09-01T20:13:06.171Z,100637.09
2023-09-01T20:15:38.787Z,100634.16
2023-09-01T20:18:08.580Z,100641.03
2023-09-01T20:20:38.771Z,100635.19
2023-09-01T20:23:08.718Z,100642.31
2023-09-01T20:25:38.874Z,100641.50
2023-09-01T20:28:11.543Z,100647.91
2023-09-01T20:30:40.640Z,100657.72
2023-09-01T20:33:09.820Z,100652.50
2023-09-01T20:35:38.711Z,100659.00
2023-09-01T20:38:09.476Z,100654.19
2023-09-01T20:40:38.986Z,100647.91
2023-09-01T20:43:09.756Z,100657.09
2023-09-01T20:45:42.039Z,100646.41
2023-09-01T20:48:12.414Z,100649.13
2023-09-01T20:50:40.876Z,100646.25
2023-09-01T20:53:10.714Z,100649.56
2023-09-01T20:55:41.121Z,100651.47
2023-09-01T20:58:10.989Z,100645.81
2023-09-01T21:00:40.594Z,100657.50
2023-09-01T21:03:09.046Z,100651.63
2023-09-01T21:05:38.142Z,100648.13
2023-09-01T21:08:07.358Z,100661.50
2023-09-01T21:10:35.376Z,100665.88
2023-09-01T21:13:03.335Z,100657.06
2023-09-01T21:15:32.780Z,100666.50
2023-09-01T21:18:00.796Z,100662.31
2023-09-01T21:20:28.779Z,100672.16
2023-09-01T21:22:56.767Z,100672.94
2023-09-01T21:25:24.687Z,100669.38
2023-09-01T21:27:52.661Z,100669.59
2023-09-01T21:30:21.437Z,100663.34
2023-09-01T21:32:50.991Z,100668.81
2023-09-01T21:35:19.169Z,100667.63
2023-09-01T21:37:47.159Z,100676.66
2023-09-01T21:40:15.275Z,100672.00
2023-09-01T21:42:43.293Z,100672.06
2023-09-01T21:45:12.088Z,100667.00
2023-09-01T21:47:40.064Z,100666.75
2023-09-01T21:50:10.445Z,100667.59
2023-09-01T21:52:38.631Z,100666.09
2023-09-01T21:55:07.520Z,100665.06
2023-09-01T21:57:36.210Z,100665.88
2023-09-01T22:00:04.830Z,100674.91
2023-09-01T22:02:33.116Z,100675.75
2023-09-01T22:05:01.243Z,100674.88
2023-09-01T22:07:30.683Z,100679.03
2023-09-01T22:09:58.912Z,100675.91
2023-09-01T22:12:26.905Z,100680.78
2023-09-01T22:14:56.816Z,100686.81
2023-09-01T22:17:25.157Z,100676.78
2023-09-01T22:19:53.515Z,100686.03
2023-09-01T22:22:21.508Z,100692.44
2023-09-01T22:24:54.581Z,100688.72
2023-09-01T22:27:21.590Z,100679.84
2023-09-01T22:37:31.371Z,100693.56
2023-09-01T22:40:03.508Z,100696.50
2023-09-01T22:48:50.256Z,100696.50
2023-09-01T22:51:55.488Z,100685.41
2023-09-01T22:54:53.701Z,100692.31
2023-09-01T22:57:50.848Z,100690.88
2023-09-01T23:00:19.745Z,100693.41
2023-09-01T23:03:06.616Z,100697.69
2023-09-01T23:05:34.737Z,100686.03
2023-09-01T23:08:03.034Z,100684.56
2023-09-01T23:10:30.917Z,100688.94
2023-09-01T23:13:00.315Z,100685.97
2023-09-01T23:15:42.969Z,100683.31
2023-09-01T23:18:39.339Z,100689.78
2023-09-01T23:21:27.446Z,100688.03
2023-09-01T23:26:38.800Z,100690.16
2023-09-01T23:29:10.096Z,100692.50
2023-09-01T23:31:52.774Z,100700.41
2023-09-01T23:34:51.356Z,100692.97
2023-09-01T23:37:19.652Z,100704.91
2023-09-01T23:43:06.238Z,100699.03
2023-09-01T23:45:43.906Z,100698.22
2023-09-01T23:48:11.949Z,100690.72
2023-09-01T23:50:39.938Z,100691.38
2023-09-01T23:53:07.964Z,100695.16
2023-09-01T23:55:35.919Z,100693.00
2023-09-01T23:58:04.301Z,100688.78
